ADDS METAR Data INFO
IDs: Format: Raw Decoded Include TAF

Data at: 0220 UTC 18 Jan 2018

KCMD 180215Z AUTO 36003KT 10SM CLR M09/M14 A3055 RMK AO2 T10911140
KCMD 180155Z AUTO 01004KT 10SM CLR M09/M14 A3055 RMK AO2 T10881141
KCMD 180135Z AUTO 36003KT 10SM CLR M09/M14 A3055 RMK AO2 T10871142
KCMD 180115Z AUTO 36004KT 10SM CLR M08/M14 A3054 RMK AO2 T10851142
KCMD 180055Z AUTO 36004KT 10SM CLR M08/M14 A3054 RMK AO2 T10831142
KCMD 180035Z AUTO 36003KT 10SM CLR M08/M14 A3055 RMK AO2 T10821139
KCMD 180015Z AUTO 34003KT 10SM CLR M08/M14 A3055 RMK AO2 T10801137
KCMD 172355Z AUTO 34004KT 10SM CLR M07/M14 A3055 RMK AO2 T10751136 11041 21076
KCMD 172335Z AUTO 34007KT 10SM CLR M07/M14 A3055 RMK AO2 T10711137
KCMD 172315Z AUTO 33005KT 10SM CLR M07/M14 A3055 RMK AO2 T10681138
KCMD 172255Z AUTO 35004KT 10SM CLR M06/M14 A3055 RMK AO2 T10651136
KCMD 172235Z AUTO 34008KT 10SM CLR M06/M13 A3055 RMK AO2 T10561135
KCMD 172215Z AUTO 32008KT 10SM CLR M05/M13 A3055 RMK AO2 T10521132
KCMD 172155Z AUTO 35009KT 320V020 10SM CLR M05/M13 A3055 RMK AO2 T10501134
KCMD 172135Z AUTO 36008G15KT 10SM CLR M05/M13 A3055 RMK AO2 T10501134
KCMD 172115Z AUTO 33006G14KT 10SM CLR M05/M13 A3055 RMK AO2 T10501134
KCMD 172055Z AUTO 34006G15KT 10SM CLR M05/M13 A3055 RMK AO2 T10501134
KCMD 172035Z AUTO 36009G15KT 10SM CLR M05/M13 A3055 RMK AO2 T10491132
KCMD 172015Z AUTO 35008G14KT 330V030 10SM CLR M05/M13 A3055 RMK AO2 T10491129
KCMD 171955Z AUTO 33010G14KT 10SM CLR M05/M13 A3055 RMK AO2 T10551133
KCMD 171935Z AUTO 36008G15KT 10SM CLR M06/M14 A3055 RMK AO2 T10591136
KCMD 171915Z AUTO 35010G16KT 10SM CLR M06/M13 A3055 RMK AO2 T10601134
KCMD 171855Z AUTO 32007G14KT 10SM CLR M06/M13 A3056 RMK AO2 T10601134
KCMD 171835Z AUTO 36007G16KT 320V020 10SM CLR M07/M14 A3057 RMK AO2 T10701141
KCMD 171815Z AUTO 36012G17KT 320V040 10SM CLR M07/M14 A3058 RMK AO2 T10711142
KCMD 171755Z AUTO 36012G16KT 10SM CLR M08/M14 A3058 RMK AO2 T10761143 11076 21146
KCMD 171735Z AUTO 33012G18KT 310V020 10SM CLR M08/M15 A3059 RMK AO2 T10781146
KCMD 171715Z AUTO 36011G14KT 10SM CLR M08/M15 A3060 RMK AO2 T10831151
KCMD 171655Z AUTO 33008KT 290V350 10SM CLR M08/M15 A3060 RMK AO2 T10851150
KCMD 171635Z AUTO 36009G21KT 10SM CLR M09/M16 A3061 RMK AO2 T10941158
KCMD 171615Z AUTO 36010G18KT 340V040 10SM CLR M10/M16 A3061 RMK AO2 T10981159
KCMD 171555Z AUTO 35011G15KT 10SM SCT012 SCT022 M10/M16 A3061 RMK AO2 T11021161
KCMD 171535Z AUTO 34014G18KT 10SM SCT008 BKN012 BKN022 M11/M16 A3061 RMK AO2 T11111165
KCMD 171515Z AUTO 35012G18KT 10SM -SN BKN009 OVC014 M11/M16 A3060 RMK AO2 T11151164
KCMD 171455Z AUTO 33009KT 4SM -SN BKN010 OVC015 M12/M16 A3059 RMK AO2 T11211162
KCMD 171435Z AUTO 34009G15KT 2 1/2SM -SN OVC012 M13/M16 A3058 RMK AO2 T11271165
KCMD 171415Z AUTO 35010G15KT 2 1/2SM -SN OVC010 M13/M17 A3057 RMK AO2 T11311166
KCMD 171355Z AUTO 35009KT 330V030 5SM -SN OVC010 M13/M17 A3057 RMK AO2 T11351169
KCMD 171335Z AUTO 35007KT 5SM -SN OVC010 M14/M17 A3057 RMK AO2 T11381172
KCMD 171315Z AUTO 34007KT 7SM -SN BKN010 BKN017 M14/M17 A3056 RMK AO2 T11401175
KCMD 171255Z AUTO 35006KT 10SM -SN SCT008 M14/M17 A3055 RMK AO2 T11421175
KCMD 171235Z AUTO 34003KT 7SM -SN BKN010 M14/M18 A3055 RMK AO2 T11441177
KCMD 171215Z AUTO 35007G14KT 10SM SCT010 SCT018 M14/M18 A3055 RMK AO2 T11451181
KCMD 171155Z AUTO 34008KT 310V020 10SM -SN BKN018 M15/M18 A3054 RMK AO2 T11471181 11113 21150
KCMD 171135Z AUTO 35010KT 330V030 10SM -SN OVC016 M15/M18 A3053 RMK AO2 T11471180
KCMD 171115Z AUTO 36007KT 10SM BKN016 M15/M18 A3053 RMK AO2 T11471182
KCMD 171055Z AUTO 35007KT 320V050 10SM BKN016 M15/M18 A3052 RMK AO2 T11461180
KCMD 171035Z AUTO 36004KT 10SM -SN BKN016 M15/M18 A3052 RMK AO2 T11471182
KCMD 171015Z AUTO 34006KT 10SM CLR M15/M18 A3052 RMK AO2 T11481185
KCMD 170955Z AUTO 35007KT 320V020 10SM CLR M15/M18 A3052 RMK AO2 T11461185
KCMD 170935Z AUTO 36007KT 10SM CLR M14/M18 A3052 RMK AO2 T11451185
KCMD 170915Z AUTO 01009KT 340V040 10SM CLR M14/M18 A3051 RMK AO2 T11431185
KCMD 170855Z AUTO 35008KT 10SM CLR M14/M18 A3051 RMK AO2 T11421182
KCMD 170835Z AUTO 34007KT 310V020 10SM CLR M14/M18 A3052 RMK AO2 T11411180
KCMD 170815Z AUTO 35006KT 10SM CLR M14/M18 A3052 RMK AO2 T11381180
KCMD 170755Z AUTO 34007KT 10SM CLR M14/M18 A3053 RMK AO2 T11361178
KCMD 170735Z AUTO 36007KT 10SM CLR M13/M18 A3054 RMK AO2 T11351179
KCMD 170715Z AUTO 35008G14KT 10SM CLR M13/M18 A3053 RMK AO2 T11311178
KCMD 170655Z AUTO 34004G14KT 10SM CLR M13/M18 A3052 RMK AO2 T11281178
KCMD 170635Z AUTO 36009G14KT 320V020 10SM SCT018 M12/M17 A3052 RMK AO2 T11241166
KCMD 170615Z AUTO 35008G15KT 10SM SCT013 OVC018 M12/M16 A3053 RMK AO2 T11171160
KCMD 170555Z AUTO 35006KT 10SM BKN018 M11/M15 A3052 RMK AO2 T11131152 11078 21114 400001114
KCMD 170535Z AUTO 36008KT 10SM CLR M11/M15 A3052 RMK AO2 T11121153
KCMD 170515Z AUTO 35008KT 10SM CLR M11/M15 A3052 RMK AO2 T11081151
KCMD 170455Z AUTO 35009G16KT 310V020 10SM CLR M10/M15 A3054 RMK AO2 T11041150
KCMD 170435Z AUTO 35008G16KT 10SM CLR M10/M15 A3054 RMK AO2 T11011150
KCMD 170415Z AUTO 35007KT 330V030 10SM CLR M10/M15 A3054 RMK AO2 T11001148
KCMD 170355Z AUTO 36005KT 10SM CLR M10/M14 A3055 RMK AO2 T10981145
KCMD 170335Z AUTO 35006KT 10SM CLR M10/M14 A3055 RMK AO2 T10971145
KCMD 170315Z AUTO 35008KT 10SM CLR M10/M14 A3054 RMK AO2 T10971145
KCMD 170255Z AUTO 35010G15KT 10SM CLR M10/M14 A3055 RMK AO2 T10961144
KCMD 170235Z AUTO 35009G15KT 10SM SCT019 M09/M14 A3054 RMK AO2 T10951140
KCMD 170215Z AUTO 36007KT 330V030 10SM BKN019 M09/M13 A3054 RMK AO2 T10911135
KCMD 170155Z AUTO 01008KT 320V030 10SM SCT013 BKN019 BKN095 M09/M13 A3054 RMK AO2 T10911135
KCMD 170135Z AUTO 36008KT 10SM SCT013 BKN019 M09/M13 A3054 RMK AO2 T10901133
KCMD 170115Z AUTO 36008KT 330V030 10SM OVC017 M09/M13 A3053 RMK AO2 T10861127
KCMD 170055Z AUTO 36010KT 10SM OVC017 M08/M12 A3052 RMK AO2 T10841124
KCMD 170035Z AUTO 36007G14KT 10SM OVC017 M08/M12 A3052 RMK AO2 T10811120
KCMD 170015Z AUTO 34008KT 10SM BKN015 BKN120 M08/M12 A3052 RMK AO2 T10801117
KCMD 162355Z AUTO 35009KT 10SM OVC015 M08/M11 A3051 RMK AO2 T10781115 11055 21078
KCMD 162335Z AUTO 33008KT 300V360 10SM OVC015 M07/M11 A3051 RMK AO2 T10751110
KCMD 162315Z AUTO 34010KT 10SM OVC015 M07/M11 A3050 RMK AO2 T10741107
KCMD 162255Z AUTO 35007KT 10SM OVC015 M07/M10 A3050 RMK AO2 T10711105
KCMD 162235Z AUTO 35005KT 10SM OVC015 M07/M10 A3049 RMK AO2 T10711104
KCMD 162215Z AUTO 34009KT 10SM -SN OVC013 M07/M10 A3050 RMK AO2 T10701100
KCMD 162155Z AUTO 33009KT 5SM -SN OVC013 M07/M10 A3050 RMK AO2 T10701097
KCMD 162135Z AUTO 34005KT 7SM -SN OVC013 M07/M09 A3049 RMK AO2 T10671095
KCMD 162115Z AUTO 34008KT 7SM -SN OVC013 M06/M09 A3049 RMK AO2 T10651093
KCMD 162055Z AUTO 34007KT 5SM -SN SCT008 OVC015 M06/M09 A3048 RMK AO2 T10651095
KCMD 162035Z AUTO 34006KT 300V010 10SM -SN SCT008 BKN015 BKN042 M06/M10 A3048 RMK AO2 T10651100
KCMD 162015Z AUTO 35009G15KT 330V030 7SM -SN SCT005 SCT010 BKN015 M06/M09 A3048 RMK AO2 T10611093
KCMD 161955Z AUTO 34007KT 5SM -SN SCT005 OVC013 M06/M09 A3048 RMK AO2 T10611090
KCMD 161935Z AUTO 33004KT 7SM -SN OVC011 M06/M09 A3048 RMK AO2 T10601086
KCMD 161915Z AUTO 35006KT 3SM -SN OVC011 M06/M08 A3048 RMK AO2 T10601085
KCMD 161855Z AUTO 35007KT 2SM -SN OVC011 M06/M08 A3048 RMK AO2 T10581080
KCMD 161835Z AUTO 33005KT 1 3/4SM -SN OVC011 M06/M08 A3048 RMK AO2 T10561076
KCMD 161815Z AUTO 36006KT 5SM -SN OVC011 M06/M08 A3048 RMK AO2 T10581082
KCMD 161755Z AUTO 35007KT 320V030 10SM BKN013 BKN027 M06/M09 A3050 RMK AO2 T10561086 11010 21056
KCMD 161735Z AUTO 35009G14KT 10SM SCT025 M05/M09 A3050 RMK AO2 T10551090
KCMD 161715Z AUTO 35010G16KT 10SM -SN SCT023 M05/M09 A3051 RMK AO2 T10521088
KCMD 161655Z AUTO 35010G14KT 5SM -SN BKN011 BKN016 BKN023 M05/M08 A3051 RMK AO2 T10491081
KCMD 161635Z AUTO 35010G15KT 5SM -SN OVC009 M05/M07 A3051 RMK AO2 T10481070
KCMD 161615Z AUTO 35009G14KT 4SM -SN OVC009 M04/M07 A3051 RMK AO2 T10441066
KCMD 161555Z AUTO 33009KT 2SM -SN OVC009 M04/M06 A3051 RMK AO2 VIS 1 3/4V3 T10411065
KCMD 161535Z AUTO 33010KT 2 1/2SM -SN SCT007 OVC013 M04/M07 A3051 RMK AO2 VIS 1 1/2V4 T10401067
KCMD 161515Z AUTO 35008KT 5SM -SN BKN011 M03/M06 A3050 RMK AO2 T10351065
KCMD 161455Z AUTO 35006KT 10SM OVC011 M03/M06 A3048 RMK AO2 T10341063
KCMD 161435Z AUTO 33005KT 10SM BKN011 OVC060 M03/M06 A3048 RMK AO2 T10301057